sensor_id;sensor_type;location;lat;lon;timestamp;P1;durP1;ratioP1;P2;durP2;ratioP2
31378;SDS011;61664;48.112;11.662;2023-02-18T00:01:28;0.85;;;0.85;;
31378;SDS011;61664;48.112;11.662;2023-02-18T00:03:57;1.48;;;0.82;;
31378;SDS011;61664;48.112;11.662;2023-02-18T00:06:26;1.00;;;0.80;;
31378;SDS011;61664;48.112;11.662;2023-02-18T00:08:58;1.67;;;1.15;;
31378;SDS011;61664;48.112;11.662;2023-02-18T00:11:28;0.85;;;0.77;;
31378;SDS011;61664;48.112;11.662;2023-02-18T00:13:58;1.10;;;1.00;;
31378;SDS011;61664;48.112;11.662;2023-02-18T00:16:28;1.30;;;1.20;;
31378;SDS011;61664;48.112;11.662;2023-02-18T00:18:57;1.88;;;1.23;;
31378;SDS011;61664;48.112;11.662;2023-02-18T00:21:28;1.60;;;1.10;;
31378;SDS011;61664;48.112;11.662;2023-02-18T00:23:55;2.63;;;1.75;;
31378;SDS011;61664;48.112;11.662;2023-02-18T00:26:22;2.33;;;1.10;;
31378;SDS011;61664;48.112;11.662;2023-02-18T00:28:49;1.27;;;0.90;;
31378;SDS011;61664;48.112;11.662;2023-02-18T00:31:19;1.15;;;0.93;;
31378;SDS011;61664;48.112;11.662;2023-02-18T00:33:50;1.25;;;1.15;;
31378;SDS011;61664;48.112;11.662;2023-02-18T00:36:17;1.55;;;1.40;;
31378;SDS011;61664;48.112;11.662;2023-02-18T00:38:47;1.80;;;1.60;;
31378;SDS011;61664;48.112;11.662;2023-02-18T00:41:17;1.15;;;1.05;;
31378;SDS011;61664;48.112;11.662;2023-02-18T00:43:45;4.75;;;1.42;;
31378;SDS011;61664;48.112;11.662;2023-02-18T00:46:14;0.95;;;0.93;;
31378;SDS011;61664;48.112;11.662;2023-02-18T00:48:41;2.83;;;1.15;;
31378;SDS011;61664;48.112;11.662;2023-02-18T00:51:09;1.08;;;0.98;;
31378;SDS011;61664;48.112;11.662;2023-02-18T00:53:39;0.85;;;0.75;;
31378;SDS011;61664;48.112;11.662;2023-02-18T00:56:07;1.10;;;0.95;;
31378;SDS011;61664;48.112;11.662;2023-02-18T00:58:35;1.58;;;1.13;;
31378;SDS011;61664;48.112;11.662;2023-02-18T01:01:02;1.15;;;0.93;;
31378;SDS011;61664;48.112;11.662;2023-02-18T01:03:33;0.60;;;0.60;;
31378;SDS011;61664;48.112;11.662;2023-02-18T01:06:01;1.50;;;1.15;;
31378;SDS011;61664;48.112;11.662;2023-02-18T01:08:30;6.20;;;0.93;;
31378;SDS011;61664;48.112;11.662;2023-02-18T01:10:58;0.55;;;0.45;;
31378;SDS011;61664;48.112;11.662;2023-02-18T01:13:25;1.20;;;0.75;;
31378;SDS011;61664;48.112;11.662;2023-02-18T01:15:53;0.70;;;0.70;;
31378;SDS011;61664;48.112;11.662;2023-02-18T01:18:21;0.85;;;0.85;;
31378;SDS011;61664;48.112;11.662;2023-02-18T01:20:51;1.57;;;1.03;;
31378;SDS011;61664;48.112;11.662;2023-02-18T01:23:18;1.05;;;0.95;;
31378;SDS011;61664;48.112;11.662;2023-02-18T01:25:46;1.00;;;0.90;;
31378;SDS011;61664;48.112;11.662;2023-02-18T01:28:14;0.63;;;0.60;;
31378;SDS011;61664;48.112;11.662;2023-02-18T01:30:41;1.85;;;0.95;;
31378;SDS011;61664;48.112;11.662;2023-02-18T01:33:08;1.15;;;1.00;;
31378;SDS011;61664;48.112;11.662;2023-02-18T01:35:37;1.33;;;0.95;;
31378;SDS011;61664;48.112;11.662;2023-02-18T01:38:05;0.70;;;0.70;;
31378;SDS011;61664;48.112;11.662;2023-02-18T01:40:33;0.98;;;0.80;;
31378;SDS011;61664;48.112;11.662;2023-02-18T01:43:01;2.65;;;1.20;;
31378;SDS011;61664;48.112;11.662;2023-02-18T01:50:43;1.17;;;1.02;;
31378;SDS011;61664;48.112;11.662;2023-02-18T01:53:16;1.25;;;1.15;;
31378;SDS011;61664;48.112;11.662;2023-02-18T01:55:49;2.97;;;1.08;;
31378;SDS011;61664;48.112;11.662;2023-02-18T01:58:16;1.23;;;1.10;;
31378;SDS011;61664;48.112;11.662;2023-02-18T02:00:44;4.03;;;1.30;;
31378;SDS011;61664;48.112;11.662;2023-02-18T02:03:11;0.73;;;0.70;;
31378;SDS011;61664;48.112;11.662;2023-02-18T02:05:38;1.13;;;1.02;;
31378;SDS011;61664;48.112;11.662;2023-02-18T02:08:05;0.98;;;0.88;;
31378;SDS011;61664;48.112;11.662;2023-02-18T02:13:45;1.20;;;1.10;;
31378;SDS011;61664;48.112;11.662;2023-02-18T02:16:59;1.05;;;0.85;;
31378;SDS011;61664;48.112;11.662;2023-02-18T02:22:25;1.33;;;0.95;;
31378;SDS011;61664;48.112;11.662;2023-02-18T02:25:43;0.60;;;0.60;;
31378;SDS011;61664;48.112;11.662;2023-02-18T02:37:33;1.10;;;1.00;;
31378;SDS011;61664;48.112;11.662;2023-02-18T02:54:47;1.45;;;0.50;;
31378;SDS011;61664;48.112;11.662;2023-02-18T02:59:43;0.50;;;0.40;;
31378;SDS011;61664;48.112;11.662;2023-02-18T03:02:23;0.50;;;0.50;;
31378;SDS011;61664;48.112;11.662;2023-02-18T03:10:45;0.30;;;0.30;;
31378;SDS011;61664;48.112;11.662;2023-02-18T03:16:49;0.60;;;0.60;;
31378;SDS011;61664;48.112;11.662;2023-02-18T03:19:41;0.68;;;0.40;;
31378;SDS011;61664;48.112;11.662;2023-02-18T03:22:21;0.40;;;0.40;;
31378;SDS011;61664;48.112;11.662;2023-02-18T03:24:57;0.50;;;0.40;;
31378;SDS011;61664;48.112;11.662;2023-02-18T03:27:31;0.50;;;0.50;;
31378;SDS011;61664;48.112;11.662;2023-02-18T03:30:21;0.30;;;0.30;;
31378;SDS011;61664;48.112;11.662;2023-02-18T03:32:58;0.55;;;0.55;;
31378;SDS011;61664;48.112;11.662;2023-02-18T03:35:30;0.50;;;0.40;;
31378;SDS011;61664;48.112;11.662;2023-02-18T03:37:59;0.50;;;0.50;;
31378;SDS011;61664;48.112;11.662;2023-02-18T03:40:59;0.55;;;0.55;;
31378;SDS011;61664;48.112;11.662;2023-02-18T03:43:26;2.92;;;0.30;;
31378;SDS011;61664;48.112;11.662;2023-02-18T03:45:54;0.50;;;0.45;;
31378;SDS011;61664;48.112;11.662;2023-02-18T03:48:21;1.25;;;0.50;;
31378;SDS011;61664;48.112;11.662;2023-02-18T03:50:48;0.40;;;0.40;;
31378;SDS011;61664;48.112;11.662;2023-02-18T03:53:15;0.30;;;0.30;;
31378;SDS011;61664;48.112;11.662;2023-02-18T03:55:42;0.52;;;0.50;;
31378;SDS011;61664;48.112;11.662;2023-02-18T03:58:09;0.63;;;0.40;;
31378;SDS011;61664;48.112;11.662;2023-02-18T04:00:36;0.68;;;0.50;;
31378;SDS011;61664;48.112;11.662;2023-02-18T04:03:03;0.68;;;0.68;;
31378;SDS011;61664;48.112;11.662;2023-02-18T04:05:30;0.32;;;0.32;;
31378;SDS011;61664;48.112;11.662;2023-02-18T04:07:57;0.50;;;0.50;;
31378;SDS011;61664;48.112;11.662;2023-02-18T04:10:23;0.50;;;0.50;;
31378;SDS011;61664;48.112;11.662;2023-02-18T04:12:50;0.93;;;0.82;;
31378;SDS011;61664;48.112;11.662;2023-02-18T04:15:17;0.65;;;0.65;;
31378;SDS011;61664;48.112;11.662;2023-02-18T04:17:44;1.00;;;0.52;;
31378;SDS011;61664;48.112;11.662;2023-02-18T04:20:11;0.90;;;0.68;;
31378;SDS011;61664;48.112;11.662;2023-02-18T04:22:38;1.17;;;0.50;;
31378;SDS011;61664;48.112;11.662;2023-02-18T04:25:05;0.40;;;0.40;;
31378;SDS011;61664;48.112;11.662;2023-02-18T04:27:33;0.60;;;0.60;;
31378;SDS011;61664;48.112;11.662;2023-02-18T04:30:00;1.05;;;0.60;;
31378;SDS011;61664;48.112;11.662;2023-02-18T04:32:27;0.70;;;0.70;;
31378;SDS011;61664;48.112;11.662;2023-02-18T04:34:54;0.88;;;0.88;;
31378;SDS011;61664;48.112;11.662;2023-02-18T04:37:20;0.50;;;0.50;;
31378;SDS011;61664;48.112;11.662;2023-02-18T04:39:47;0.90;;;0.73;;
31378;SDS011;61664;48.112;11.662;2023-02-18T04:42:14;0.68;;;0.68;;
31378;SDS011;61664;48.112;11.662;2023-02-18T04:44:41;1.05;;;0.60;;
31378;SDS011;61664;48.112;11.662;2023-02-18T04:47:08;0.40;;;0.40;;
31378;SDS011;61664;48.112;11.662;2023-02-18T04:49:35;0.40;;;0.40;;
31378;SDS011;61664;48.112;11.662;2023-02-18T04:52:02;0.57;;;0.57;;
31378;SDS011;61664;48.112;11.662;2023-02-18T04:54:29;0.57;;;0.57;;
31378;SDS011;61664;48.112;11.662;2023-02-18T04:56:58;0.80;;;0.50;;
31378;SDS011;61664;48.112;11.662;2023-02-18T04:59:25;0.40;;;0.40;;
31378;SDS011;61664;48.112;11.662;2023-02-18T05:01:52;0.80;;;0.50;;
31378;SDS011;61664;48.112;11.662;2023-02-18T05:04:19;0.40;;;0.40;;
31378;SDS011;61664;48.112;11.662;2023-02-18T05:06:46;0.38;;;0.30;;
31378;SDS011;61664;48.112;11.662;2023-02-18T05:09:13;0.32;;;0.32;;
31378;SDS011;61664;48.112;11.662;2023-02-18T05:11:40;1.27;;;0.30;;
31378;SDS011;61664;48.112;11.662;2023-02-18T05:14:08;0.57;;;0.57;;
31378;SDS011;61664;48.112;11.662;2023-02-18T05:16:35;0.52;;;0.52;;
31378;SDS011;61664;48.112;11.662;2023-02-18T05:19:02;0.60;;;0.47;;
31378;SDS011;61664;48.112;11.662;2023-02-18T05:21:29;0.50;;;0.40;;
31378;SDS011;61664;48.112;11.662;2023-02-18T05:23:56;0.50;;;0.50;;
31378;SDS011;61664;48.112;11.662;2023-02-18T05:26:23;0.68;;;0.38;;
31378;SDS011;61664;48.112;11.662;2023-02-18T05:28:50;0.20;;;0.20;;
31378;SDS011;61664;48.112;11.662;2023-02-18T05:31:17;0.35;;;0.32;;
31378;SDS011;61664;48.112;11.662;2023-02-18T05:33:44;0.30;;;0.30;;
31378;SDS011;61664;48.112;11.662;2023-02-18T05:36:11;0.28;;;0.28;;
31378;SDS011;61664;48.112;11.662;2023-02-18T05:38:38;0.45;;;0.30;;
31378;SDS011;61664;48.112;11.662;2023-02-18T05:41:05;0.25;;;0.25;;
31378;SDS011;61664;48.112;11.662;2023-02-18T05:43:32;0.40;;;0.30;;
31378;SDS011;61664;48.112;11.662;2023-02-18T05:46:21;0.20;;;0.20;;
31378;SDS011;61664;48.112;11.662;2023-02-18T05:48:57;0.22;;;0.20;;
31378;SDS011;61664;48.112;11.662;2023-02-18T05:51:24;0.30;;;0.20;;
31378;SDS011;61664;48.112;11.662;2023-02-18T05:53:51;0.20;;;0.20;;
31378;SDS011;61664;48.112;11.662;2023-02-18T05:56:18;0.20;;;0.20;;
31378;SDS011;61664;48.112;11.662;2023-02-18T05:58:45;0.20;;;0.20;;
31378;SDS011;61664;48.112;11.662;2023-02-18T06:01:12;0.22;;;0.22;;
31378;SDS011;61664;48.112;11.662;2023-02-18T06:03:39;0.20;;;0.20;;
31378;SDS011;61664;48.112;11.662;2023-02-18T06:06:06;0.22;;;0.20;;
31378;SDS011;61664;48.112;11.662;2023-02-18T06:08:34;0.20;;;0.20;;
31378;SDS011;61664;48.112;11.662;2023-02-18T06:11:02;0.10;;;0.10;;
31378;SDS011;61664;48.112;11.662;2023-02-18T06:13:29;0.40;;;0.30;;
31378;SDS011;61664;48.112;11.662;2023-02-18T06:15:56;0.32;;;0.13;;
31378;SDS011;61664;48.112;11.662;2023-02-18T06:18:23;0.73;;;0.20;;
31378;SDS011;61664;48.112;11.662;2023-02-18T06:20:50;0.13;;;0.13;;
31378;SDS011;61664;48.112;11.662;2023-02-18T06:23:17;0.20;;;0.20;;
31378;SDS011;61664;48.112;11.662;2023-02-18T06:25:46;0.30;;;0.25;;
31378;SDS011;61664;48.112;11.662;2023-02-18T06:30:43;0.17;;;0.10;;
31378;SDS011;61664;48.112;11.662;2023-02-18T06:33:11;0.20;;;0.20;;
31378;SDS011;61664;48.112;11.662;2023-02-18T06:35:38;0.10;;;0.10;;
31378;SDS011;61664;48.112;11.662;2023-02-18T06:38:05;0.20;;;0.20;;
31378;SDS011;61664;48.112;11.662;2023-02-18T06:40:32;0.30;;;0.25;;
31378;SDS011;61664;48.112;11.662;2023-02-18T06:42:59;0.10;;;0.10;;
31378;SDS011;61664;48.112;11.662;2023-02-18T06:45:26;0.30;;;0.30;;
31378;SDS011;61664;48.112;11.662;2023-02-18T06:47:53;0.57;;;0.20;;
31378;SDS011;61664;48.112;11.662;2023-02-18T06:50:20;0.20;;;0.20;;
31378;SDS011;61664;48.112;11.662;2023-02-18T06:52:47;0.10;;;0.10;;
31378;SDS011;61664;48.112;11.662;2023-02-18T06:55:13;0.30;;;0.25;;
31378;SDS011;61664;48.112;11.662;2023-02-18T06:57:40;0.28;;;0.20;;
31378;SDS011;61664;48.112;11.662;2023-02-18T07:00:07;0.20;;;0.20;;
31378;SDS011;61664;48.112;11.662;2023-02-18T07:02:35;0.45;;;0.45;;
31378;SDS011;61664;48.112;11.662;2023-02-18T07:05:02;0.25;;;0.20;;
31378;SDS011;61664;48.112;11.662;2023-02-18T07:07:29;0.20;;;0.20;;
31378;SDS011;61664;48.112;11.662;2023-02-18T07:09:56;0.25;;;0.25;;
31378;SDS011;61664;48.112;11.662;2023-02-18T07:12:23;0.20;;;0.10;;
31378;SDS011;61664;48.112;11.662;2023-02-18T07:14:50;0.10;;;0.10;;
31378;SDS011;61664;48.112;11.662;2023-02-18T07:17:17;0.50;;;0.20;;
31378;SDS011;61664;48.112;11.662;2023-02-18T07:19:45;0.20;;;0.20;;
31378;SDS011;61664;48.112;11.662;2023-02-18T07:22:12;0.70;;;0.25;;
31378;SDS011;61664;48.112;11.662;2023-02-18T07:24:39;1.08;;;0.20;;
31378;SDS011;61664;48.112;11.662;2023-02-18T07:27:06;0.20;;;0.10;;
31378;SDS011;61664;48.112;11.662;2023-02-18T07:29:33;0.30;;;0.22;;
31378;SDS011;61664;48.112;11.662;2023-02-18T07:32:00;0.10;;;0.10;;
31378;SDS011;61664;48.112;11.662;2023-02-18T07:34:26;0.22;;;0.20;;
31378;SDS011;61664;48.112;11.662;2023-02-18T07:36:53;0.95;;;0.47;;
31378;SDS011;61664;48.112;11.662;2023-02-18T07:39:20;0.40;;;0.40;;
31378;SDS011;61664;48.112;11.662;2023-02-18T07:41:47;0.45;;;0.45;;
31378;SDS011;61664;48.112;11.662;2023-02-18T07:44:14;0.30;;;0.30;;
31378;SDS011;61664;48.112;11.662;2023-02-18T07:46:41;0.88;;;0.38;;
31378;SDS011;61664;48.112;11.662;2023-02-18T07:49:08;0.20;;;0.20;;
31378;SDS011;61664;48.112;11.662;2023-02-18T07:51:35;0.25;;;0.20;;
31378;SDS011;61664;48.112;11.662;2023-02-18T07:54:03;1.27;;;0.30;;
31378;SDS011;61664;48.112;11.662;2023-02-18T07:56:30;0.20;;;0.20;;
31378;SDS011;61664;48.112;11.662;2023-02-18T07:58:57;0.55;;;0.30;;
31378;SDS011;61664;48.112;11.662;2023-02-18T08:01:24;0.30;;;0.30;;
31378;SDS011;61664;48.112;11.662;2023-02-18T08:03:51;0.30;;;0.30;;
31378;SDS011;61664;48.112;11.662;2023-02-18T08:06:19;0.65;;;0.22;;
31378;SDS011;61664;48.112;11.662;2023-02-18T08:09:14;0.17;;;0.17;;
31378;SDS011;61664;48.112;11.662;2023-02-18T08:11:43;0.50;;;0.28;;
31378;SDS011;61664;48.112;11.662;2023-02-18T08:14:10;0.25;;;0.20;;
31378;SDS011;61664;48.112;11.662;2023-02-18T08:16:37;0.25;;;0.25;;
31378;SDS011;61664;48.112;11.662;2023-02-18T08:19:04;0.60;;;0.30;;
31378;SDS011;61664;48.112;11.662;2023-02-18T08:21:31;0.10;;;0.10;;
31378;SDS011;61664;48.112;11.662;2023-02-18T08:23:58;0.20;;;0.20;;
31378;SDS011;61664;48.112;11.662;2023-02-18T08:26:25;0.25;;;0.25;;
31378;SDS011;61664;48.112;11.662;2023-02-18T08:28:52;0.35;;;0.35;;
31378;SDS011;61664;48.112;11.662;2023-02-18T08:31:21;0.30;;;0.30;;
31378;SDS011;61664;48.112;11.662;2023-02-18T08:33:52;0.35;;;0.35;;
31378;SDS011;61664;48.112;11.662;2023-02-18T08:36:21;0.70;;;0.30;;
31378;SDS011;61664;48.112;11.662;2023-02-18T08:38:48;0.38;;;0.38;;
31378;SDS011;61664;48.112;11.662;2023-02-18T08:41:16;0.65;;;0.40;;
31378;SDS011;61664;48.112;11.662;2023-02-18T08:43:46;0.50;;;0.43;;
31378;SDS011;61664;48.112;11.662;2023-02-18T08:46:14;0.38;;;0.30;;
31378;SDS011;61664;48.112;11.662;2023-02-18T08:49:00;0.45;;;0.30;;
31378;SDS011;61664;48.112;11.662;2023-02-18T08:51:26;3.55;;;1.20;;
31378;SDS011;61664;48.112;11.662;2023-02-18T08:53:53;0.20;;;0.20;;
31378;SDS011;61664;48.112;11.662;2023-02-18T08:56:20;0.30;;;0.30;;
31378;SDS011;61664;48.112;11.662;2023-02-18T08:58:47;0.30;;;0.30;;
31378;SDS011;61664;48.112;11.662;2023-02-18T09:01:14;0.50;;;0.22;;
31378;SDS011;61664;48.112;11.662;2023-02-18T09:03:41;0.90;;;0.30;;
31378;SDS011;61664;48.112;11.662;2023-02-18T09:06:08;0.17;;;0.17;;
31378;SDS011;61664;48.112;11.662;2023-02-18T09:08:35;0.40;;;0.35;;
31378;SDS011;61664;48.112;11.662;2023-02-18T09:11:02;1.88;;;0.40;;
31378;SDS011;61664;48.112;11.662;2023-02-18T09:13:30;0.68;;;0.40;;
31378;SDS011;61664;48.112;11.662;2023-02-18T09:16:02;1.27;;;1.00;;
31378;SDS011;61664;48.112;11.662;2023-02-18T09:18:37;3.45;;;1.88;;
31378;SDS011;61664;48.112;11.662;2023-02-18T09:21:05;2.45;;;1.98;;
31378;SDS011;61664;48.112;11.662;2023-02-18T09:23:35;3.65;;;2.75;;
31378;SDS011;61664;48.112;11.662;2023-02-18T09:26:03;4.13;;;2.60;;
31378;SDS011;61664;48.112;11.662;2023-02-18T09:28:33;1.90;;;1.60;;
31378;SDS011;61664;48.112;11.662;2023-02-18T09:31:11;3.65;;;2.63;;
31378;SDS011;61664;48.112;11.662;2023-02-18T09:33:44;1.52;;;1.42;;
31378;SDS011;61664;48.112;11.662;2023-02-18T09:36:16;0.85;;;0.47;;
31378;SDS011;61664;48.112;11.662;2023-02-18T09:38:45;1.15;;;1.05;;
31378;SDS011;61664;48.112;11.662;2023-02-18T09:41:14;1.85;;;1.60;;
31378;SDS011;61664;48.112;11.662;2023-02-18T09:43:48;1.25;;;1.15;;
31378;SDS011;61664;48.112;11.662;2023-02-18T09:46:30;3.05;;;0.52;;
31378;SDS011;61664;48.112;11.662;2023-02-18T09:49:06;0.93;;;0.82;;
31378;SDS011;61664;48.112;11.662;2023-02-18T09:51:46;0.60;;;0.60;;
31378;SDS011;61664;48.112;11.662;2023-02-18T09:54:14;0.50;;;0.50;;
31378;SDS011;61664;48.112;11.662;2023-02-18T09:56:44;0.47;;;0.47;;
31378;SDS011;61664;48.112;11.662;2023-02-18T09:59:15;0.40;;;0.40;;
31378;SDS011;61664;48.112;11.662;2023-02-18T10:01:47;0.55;;;0.30;;
31378;SDS011;61664;48.112;11.662;2023-02-18T10:06:57;0.40;;;0.32;;
31378;SDS011;61664;48.112;11.662;2023-02-18T10:09:29;0.80;;;0.43;;
31378;SDS011;61664;48.112;11.662;2023-02-18T10:12:03;0.60;;;0.50;;
31378;SDS011;61664;48.112;11.662;2023-02-18T10:14:51;0.20;;;0.20;;
31378;SDS011;61664;48.112;11.662;2023-02-18T10:17:29;0.40;;;0.32;;
31378;SDS011;61664;48.112;11.662;2023-02-18T10:19:58;0.30;;;0.30;;
31378;SDS011;61664;48.112;11.662;2023-02-18T10:22:29;0.30;;;0.28;;
31378;SDS011;61664;48.112;11.662;2023-02-18T10:25:01;0.35;;;0.30;;
31378;SDS011;61664;48.112;11.662;2023-02-18T10:27:36;0.35;;;0.35;;
31378;SDS011;61664;48.112;11.662;2023-02-18T10:33:13;0.45;;;0.45;;
31378;SDS011;61664;48.112;11.662;2023-02-18T10:35:48;0.55;;;0.55;;
31378;SDS011;61664;48.112;11.662;2023-02-18T10:38:29;0.55;;;0.50;;
31378;SDS011;61664;48.112;11.662;2023-02-18T10:41:24;0.47;;;0.40;;
31378;SDS011;61664;48.112;11.662;2023-02-18T10:44:09;0.45;;;0.32;;
31378;SDS011;61664;48.112;11.662;2023-02-18T10:47:38;0.60;;;0.60;;
31378;SDS011;61664;48.112;11.662;2023-02-18T10:56:06;0.35;;;0.28;;
31378;SDS011;61664;48.112;11.662;2023-02-18T10:58:35;0.22;;;0.22;;
31378;SDS011;61664;48.112;11.662;2023-02-18T11:01:15;0.80;;;0.45;;
31378;SDS011;61664;48.112;11.662;2023-02-18T11:03:47;0.68;;;0.32;;
31378;SDS011;61664;48.112;11.662;2023-02-18T11:08:52;0.40;;;0.40;;
31378;SDS011;61664;48.112;11.662;2023-02-18T11:11:37;1.10;;;0.82;;
31378;SDS011;61664;48.112;11.662;2023-02-18T11:14:06;0.60;;;0.60;;
31378;SDS011;61664;48.112;11.662;2023-02-18T11:16:39;0.40;;;0.40;;
31378;SDS011;61664;48.112;11.662;2023-02-18T11:22:23;1.45;;;0.30;;
31378;SDS011;61664;48.112;11.662;2023-02-18T11:24:55;0.40;;;0.30;;
31378;SDS011;61664;48.112;11.662;2023-02-18T11:27:27;0.35;;;0.35;;
31378;SDS011;61664;48.112;11.662;2023-02-18T11:33:17;0.20;;;0.20;;
31378;SDS011;61664;48.112;11.662;2023-02-18T11:35:53;0.20;;;0.20;;
31378;SDS011;61664;48.112;11.662;2023-02-18T11:38:28;0.40;;;0.30;;
31378;SDS011;61664;48.112;11.662;2023-02-18T11:41:35;0.20;;;0.20;;
31378;SDS011;61664;48.112;11.662;2023-02-18T11:44:07;0.50;;;0.40;;
31378;SDS011;61664;48.112;11.662;2023-02-18T11:46:59;0.40;;;0.25;;
31378;SDS011;61664;48.112;11.662;2023-02-18T11:49:28;0.40;;;0.20;;
31378;SDS011;61664;48.112;11.662;2023-02-18T11:52:04;0.45;;;0.30;;
31378;SDS011;61664;48.112;11.662;2023-02-18T11:58:00;0.50;;;0.20;;
31378;SDS011;61664;48.112;11.662;2023-02-18T12:03:45;0.30;;;0.30;;
31378;SDS011;61664;48.112;11.662;2023-02-18T12:06:47;0.15;;;0.13;;
31378;SDS011;61664;48.112;11.662;2023-02-18T12:09:34;0.52;;;0.52;;
31378;SDS011;61664;48.112;11.662;2023-02-18T12:26:02;0.30;;;0.30;;
31378;SDS011;61664;48.112;11.662;2023-02-18T12:34:48;0.28;;;0.28;;
31378;SDS011;61664;48.112;11.662;2023-02-18T12:37:44;0.60;;;0.30;;
31378;SDS011;61664;48.112;11.662;2023-02-18T12:40:33;0.85;;;0.20;;
31378;SDS011;61664;48.112;11.662;2023-02-18T12:49:14;0.40;;;0.40;;
31378;SDS011;61664;48.112;11.662;2023-02-18T12:58:12;0.55;;;0.32;;
31378;SDS011;61664;48.112;11.662;2023-02-18T13:09:55;0.40;;;0.30;;
31378;SDS011;61664;48.112;11.662;2023-02-18T13:12:42;0.52;;;0.20;;
31378;SDS011;61664;48.112;11.662;2023-02-18T13:15:41;0.80;;;0.20;;
31378;SDS011;61664;48.112;11.662;2023-02-18T13:18:38;1.20;;;0.52;;
31378;SDS011;61664;48.112;11.662;2023-02-18T13:21:11;0.30;;;0.30;;
31378;SDS011;61664;48.112;11.662;2023-02-18T13:26:31;0.20;;;0.20;;
31378;SDS011;61664;48.112;11.662;2023-02-18T13:29:35;0.30;;;0.28;;
31378;SDS011;61664;48.112;11.662;2023-02-18T13:32:00;0.50;;;0.30;;
31378;SDS011;61664;48.112;11.662;2023-02-18T13:43:17;0.30;;;0.30;;
31378;SDS011;61664;48.112;11.662;2023-02-18T13:51:29;0.63;;;0.32;;
31378;SDS011;61664;48.112;11.662;2023-02-18T13:56:49;0.32;;;0.30;;
31378;SDS011;61664;48.112;11.662;2023-02-18T13:59:44;0.70;;;0.30;;
31378;SDS011;61664;48.112;11.662;2023-02-18T14:10:13;0.40;;;0.40;;
31378;SDS011;61664;48.112;11.662;2023-02-18T14:20:47;0.22;;;0.22;;
31378;SDS011;61664;48.112;11.662;2023-02-18T14:25:54;2.08;;;0.30;;
31378;SDS011;61664;48.112;11.662;2023-02-18T14:31:19;0.50;;;0.20;;
31378;SDS011;61664;48.112;11.662;2023-02-18T14:43:03;1.95;;;0.40;;
31378;SDS011;61664;48.112;11.662;2023-02-18T14:46:02;2.17;;;0.50;;
31378;SDS011;61664;48.112;11.662;2023-02-18T14:52:03;0.80;;;0.75;;
31378;SDS011;61664;48.112;11.662;2023-02-18T14:54:38;2.50;;;0.63;;
31378;SDS011;61664;48.112;11.662;2023-02-18T14:57:08;2.08;;;1.38;;
31378;SDS011;61664;48.112;11.662;2023-02-18T14:59:43;1.58;;;1.15;;
31378;SDS011;61664;48.112;11.662;2023-02-18T15:02:17;3.17;;;1.60;;
31378;SDS011;61664;48.112;11.662;2023-02-18T15:08:01;1.00;;;0.75;;
31378;SDS011;61664;48.112;11.662;2023-02-18T15:10:35;0.70;;;0.50;;
31378;SDS011;61664;48.112;11.662;2023-02-18T15:13:35;0.70;;;0.70;;
31378;SDS011;61664;48.112;11.662;2023-02-18T15:16:18;1.48;;;0.40;;
31378;SDS011;61664;48.112;11.662;2023-02-18T15:18:59;1.33;;;0.60;;
31378;SDS011;61664;48.112;11.662;2023-02-18T15:24:24;0.55;;;0.40;;
31378;SDS011;61664;48.112;11.662;2023-02-18T15:26:51;0.63;;;0.40;;
31378;SDS011;61664;48.112;11.662;2023-02-18T15:31:52;0.30;;;0.30;;
31378;SDS011;61664;48.112;11.662;2023-02-18T15:37:05;0.40;;;0.38;;
31378;SDS011;61664;48.112;11.662;2023-02-18T15:39:39;0.60;;;0.30;;
31378;SDS011;61664;48.112;11.662;2023-02-18T15:42:27;0.65;;;0.57;;
31378;SDS011;61664;48.112;11.662;2023-02-18T15:45:08;1.45;;;0.50;;
31378;SDS011;61664;48.112;11.662;2023-02-18T15:47:52;0.40;;;0.35;;
31378;SDS011;61664;48.112;11.662;2023-02-18T15:50:26;0.20;;;0.20;;
31378;SDS011;61664;48.112;11.662;2023-02-18T15:53:07;0.40;;;0.30;;
31378;SDS011;61664;48.112;11.662;2023-02-18T15:55:45;1.40;;;0.30;;
31378;SDS011;61664;48.112;11.662;2023-02-18T15:58:16;0.32;;;0.30;;
31378;SDS011;61664;48.112;11.662;2023-02-18T16:01:04;0.30;;;0.30;;
31378;SDS011;61664;48.112;11.662;2023-02-18T16:03:43;1.17;;;0.60;;
31378;SDS011;61664;48.112;11.662;2023-02-18T16:06:33;0.68;;;0.40;;
31378;SDS011;61664;48.112;11.662;2023-02-18T16:09:24;0.30;;;0.30;;
31378;SDS011;61664;48.112;11.662;2023-02-18T16:11:58;0.43;;;0.38;;
31378;SDS011;61664;48.112;11.662;2023-02-18T16:14:31;0.52;;;0.40;;
31378;SDS011;61664;48.112;11.662;2023-02-18T16:24:57;0.60;;;0.40;;
31378;SDS011;61664;48.112;11.662;2023-02-18T16:30:27;0.20;;;0.20;;
31378;SDS011;61664;48.112;11.662;2023-02-18T16:32:58;0.30;;;0.30;;
31378;SDS011;61664;48.112;11.662;2023-02-18T16:35:26;2.78;;;0.30;;
31378;SDS011;61664;48.112;11.662;2023-02-18T16:38:18;0.43;;;0.30;;
31378;SDS011;61664;48.112;11.662;2023-02-18T16:40:48;0.15;;;0.15;;
31378;SDS011;61664;48.112;11.662;2023-02-18T16:43:19;0.30;;;0.30;;
31378;SDS011;61664;48.112;11.662;2023-02-18T16:45:52;0.30;;;0.25;;
31378;SDS011;61664;48.112;11.662;2023-02-18T16:48:28;0.82;;;0.30;;
31378;SDS011;61664;48.112;11.662;2023-02-18T16:51:04;0.52;;;0.30;;
31378;SDS011;61664;48.112;11.662;2023-02-18T16:53:36;0.40;;;0.30;;
31378;SDS011;61664;48.112;11.662;2023-02-18T16:56:03;0.60;;;0.30;;
31378;SDS011;61664;48.112;11.662;2023-02-18T16:58:32;0.63;;;0.57;;
31378;SDS011;61664;48.112;11.662;2023-02-18T17:00:59;0.47;;;0.30;;
31378;SDS011;61664;48.112;11.662;2023-02-18T17:03:27;0.30;;;0.30;;
31378;SDS011;61664;48.112;11.662;2023-02-18T17:05:53;0.55;;;0.30;;
31378;SDS011;61664;48.112;11.662;2023-02-18T17:08:22;1.02;;;0.35;;
31378;SDS011;61664;48.112;11.662;2023-02-18T17:10:53;0.63;;;0.30;;
31378;SDS011;61664;48.112;11.662;2023-02-18T17:15:54;0.50;;;0.50;;
31378;SDS011;61664;48.112;11.662;2023-02-18T17:18:23;2.88;;;0.50;;
31378;SDS011;61664;48.112;11.662;2023-02-18T17:20:52;0.70;;;0.47;;
31378;SDS011;61664;48.112;11.662;2023-02-18T17:23:21;0.50;;;0.50;;
31378;SDS011;61664;48.112;11.662;2023-02-18T17:25:49;0.40;;;0.40;;
31378;SDS011;61664;48.112;11.662;2023-02-18T17:28:18;0.25;;;0.25;;
31378;SDS011;61664;48.112;11.662;2023-02-18T17:30:51;0.32;;;0.22;;
31378;SDS011;61664;48.112;11.662;2023-02-18T17:33:22;1.75;;;0.30;;
31378;SDS011;61664;48.112;11.662;2023-02-18T17:35:51;0.32;;;0.32;;
31378;SDS011;61664;48.112;11.662;2023-02-18T17:38:18;0.35;;;0.35;;
31378;SDS011;61664;48.112;11.662;2023-02-18T17:40:45;0.52;;;0.52;;
31378;SDS011;61664;48.112;11.662;2023-02-18T17:43:18;0.40;;;0.40;;
31378;SDS011;61664;48.112;11.662;2023-02-18T17:45:48;0.38;;;0.38;;
31378;SDS011;61664;48.112;11.662;2023-02-18T17:48:18;1.20;;;0.30;;
31378;SDS011;61664;48.112;11.662;2023-02-18T17:50:45;0.45;;;0.30;;
31378;SDS011;61664;48.112;11.662;2023-02-18T17:53:12;0.28;;;0.28;;
31378;SDS011;61664;48.112;11.662;2023-02-18T17:55:41;0.40;;;0.40;;
31378;SDS011;61664;48.112;11.662;2023-02-18T17:58:12;0.40;;;0.40;;
31378;SDS011;61664;48.112;11.662;2023-02-18T18:01:02;0.30;;;0.30;;
31378;SDS011;61664;48.112;11.662;2023-02-18T18:03:27;0.38;;;0.38;;
31378;SDS011;61664;48.112;11.662;2023-02-18T18:05:54;0.30;;;0.30;;
31378;SDS011;61664;48.112;11.662;2023-02-18T18:08:22;2.45;;;0.40;;
31378;SDS011;61664;48.112;11.662;2023-02-18T18:10:53;0.35;;;0.35;;
31378;SDS011;61664;48.112;11.662;2023-02-18T18:13:25;0.35;;;0.30;;
31378;SDS011;61664;48.112;11.662;2023-02-18T18:15:55;0.40;;;0.40;;
31378;SDS011;61664;48.112;11.662;2023-02-18T18:18:23;0.40;;;0.40;;